createdAt,value
2023-04-23T00:00:15.583Z,37.85
2023-04-23T00:02:49.861Z,40.20
2023-04-23T00:05:17.260Z,39.97
2023-04-23T00:07:44.466Z,42.08
2023-04-23T00:10:12.300Z,40.78
2023-04-23T00:12:39.776Z,41.78
2023-04-23T00:15:08.066Z,41.15
2023-04-23T00:17:34.943Z,41.20
2023-04-23T00:20:02.029Z,42.33
2023-04-23T00:22:28.829Z,40.28
2023-04-23T00:24:55.590Z,41.05
2023-04-23T00:27:22.423Z,41.55
2023-04-23T00:29:51.366Z,40.88
2023-04-23T00:32:18.294Z,44.25
2023-04-23T00:34:48.612Z,40.58
2023-04-23T00:37:16.221Z,42.33
2023-04-23T00:39:43.614Z,41.95
2023-04-23T00:42:12.490Z,41.28
2023-04-23T00:44:40.785Z,41.67
2023-04-23T00:47:07.967Z,43.10
2023-04-23T00:49:35.933Z,41.80
2023-04-23T00:52:03.759Z,38.55
2023-04-23T00:54:31.105Z,42.50
2023-04-23T00:56:58.503Z,41.97
2023-04-23T00:59:28.706Z,41.90
2023-04-23T01:01:56.645Z,43.65
2023-04-23T01:04:28.036Z,41.55
2023-04-23T01:06:56.728Z,42.45
2023-04-23T01:09:24.925Z,40.25
2023-04-23T01:11:52.094Z,42.83
2023-04-23T01:14:19.079Z,42.15
2023-04-23T01:16:46.966Z,43.35
2023-04-23T01:19:16.033Z,42.80
2023-04-23T01:21:43.296Z,41.40
2023-04-23T01:24:11.857Z,43.47
2023-04-23T01:26:39.831Z,40.25
2023-04-23T01:29:07.811Z,40.33
2023-04-23T01:31:34.984Z,38.80
2023-04-23T01:34:02.480Z,41.88
2023-04-23T01:36:31.129Z,40.72
2023-04-23T01:38:58.035Z,39.78
2023-04-23T01:41:25.031Z,39.83
2023-04-23T01:43:51.929Z,41.25
2023-04-23T01:46:21.016Z,40.90
2023-04-23T01:48:47.985Z,39.33
2023-04-23T01:51:15.248Z,40.10
2023-04-23T01:53:42.044Z,40.67
2023-04-23T01:56:10.457Z,39.53
2023-04-23T01:58:37.442Z,39.88
2023-04-23T02:01:04.301Z,39.15
2023-04-23T02:03:33.765Z,37.30
2023-04-23T02:06:01.201Z,39.75
2023-04-23T02:08:28.714Z,38.97
2023-04-23T02:10:55.554Z,38.42
2023-04-23T02:13:22.434Z,38.15
2023-04-23T02:15:49.377Z,37.65
2023-04-23T02:18:16.477Z,37.97
2023-04-23T02:20:43.781Z,38.30
2023-04-23T02:23:10.643Z,38.30
2023-04-23T02:25:40.893Z,38.08
2023-04-23T02:28:08.258Z,37.88
2023-04-23T02:30:35.771Z,37.25
2023-04-23T02:33:03.819Z,35.75
2023-04-23T02:35:31.467Z,35.80
2023-04-23T02:37:58.397Z,37.08
2023-04-23T02:40:25.325Z,35.45
2023-04-23T02:42:52.174Z,36.38
2023-04-23T02:45:18.993Z,36.03
2023-04-23T02:47:45.756Z,36.20
2023-04-23T02:50:12.609Z,36.65
2023-04-23T02:52:39.451Z,36.83
2023-04-23T02:55:07.583Z,36.38
2023-04-23T02:57:34.690Z,36.58
2023-04-23T03:00:01.560Z,34.00
2023-04-23T03:02:35.607Z,34.58
2023-04-23T03:05:03.038Z,33.38
2023-04-23T03:07:30.272Z,35.10
2023-04-23T03:09:57.798Z,34.78
2023-04-23T03:12:24.986Z,33.15
2023-04-23T03:14:51.855Z,33.90
2023-04-23T03:17:18.893Z,32.75
2023-04-23T03:19:45.917Z,33.17
2023-04-23T03:22:12.919Z,34.38
2023-04-23T03:24:39.960Z,31.40
2023-04-23T03:27:07.078Z,32.28
2023-04-23T03:29:33.954Z,30.95
2023-04-23T03:32:01.265Z,31.65
2023-04-23T03:34:28.241Z,31.15
2023-04-23T03:36:55.180Z,31.48
2023-04-23T03:39:22.205Z,29.63
2023-04-23T03:41:52.426Z,31.27
2023-04-23T03:44:23.396Z,31.08
2023-04-23T03:46:52.176Z,33.42
2023-04-23T03:49:19.940Z,30.48
2023-04-23T03:51:46.806Z,32.38
2023-04-23T03:54:13.853Z,31.65
2023-04-23T03:56:44.883Z,31.05
2023-04-23T03:59:17.838Z,31.30
2023-04-23T04:01:48.616Z,31.95
2023-04-23T04:04:15.911Z,31.65
2023-04-23T04:06:43.821Z,31.77
2023-04-23T04:09:10.625Z,31.58
2023-04-23T04:11:37.475Z,30.67
2023-04-23T04:14:04.358Z,29.77
2023-04-23T04:16:31.189Z,30.70
2023-04-23T04:18:58.087Z,30.23
2023-04-23T04:21:25.006Z,29.35
2023-04-23T04:23:52.051Z,30.70
2023-04-23T04:26:18.972Z,29.23
2023-04-23T04:28:46.342Z,29.23
2023-04-23T04:31:15.947Z,29.20
2023-04-23T04:33:43.284Z,28.90
2023-04-23T04:36:10.037Z,28.60
2023-04-23T04:38:39.650Z,27.27
2023-04-23T04:41:07.590Z,27.40
2023-04-23T04:43:34.461Z,27.85
2023-04-23T04:46:01.250Z,27.08
2023-04-23T04:48:28.069Z,28.08
2023-04-23T04:50:55.062Z,27.40
2023-04-23T04:53:21.928Z,27.45
2023-04-23T04:55:48.725Z,26.05
2023-04-23T04:58:15.688Z,27.20
2023-04-23T05:00:42.578Z,26.65
2023-04-23T05:03:11.765Z,24.58
2023-04-23T05:05:40.343Z,24.85
2023-04-23T05:08:07.465Z,25.08
2023-04-23T05:10:34.271Z,24.92
2023-04-23T05:13:01.129Z,24.50
2023-04-23T05:15:28.154Z,24.23
2023-04-23T05:17:54.973Z,23.90
2023-04-23T05:20:22.111Z,24.15
2023-04-23T05:22:49.022Z,24.00
2023-04-23T05:25:15.908Z,24.35
2023-04-23T05:27:42.669Z,23.48
2023-04-23T05:30:11.035Z,23.20
2023-04-23T05:32:38.737Z,22.25
2023-04-23T05:35:07.010Z,22.77
2023-04-23T05:37:33.925Z,22.33
2023-04-23T05:40:02.464Z,23.40
2023-04-23T05:42:29.377Z,22.35
2023-04-23T05:44:56.128Z,21.85
2023-04-23T05:47:23.031Z,22.17
2023-04-23T05:49:49.854Z,22.38
2023-04-23T05:52:16.802Z,21.23
2023-04-23T05:54:43.786Z,20.75
2023-04-23T05:57:12.117Z,21.85
2023-04-23T05:59:38.917Z,22.30
2023-04-23T06:02:06.694Z,20.92
2023-04-23T06:04:33.796Z,20.95
2023-04-23T06:07:00.688Z,19.98
2023-04-23T06:09:27.520Z,19.90
2023-04-23T06:11:54.708Z,20.45
2023-04-23T06:14:21.636Z,19.85
2023-04-23T06:16:48.365Z,19.52
2023-04-23T06:19:15.301Z,19.23
2023-04-23T06:21:42.155Z,19.33
2023-04-23T06:24:09.051Z,18.52
2023-04-23T06:26:36.021Z,18.65
2023-04-23T06:29:10.891Z,18.15
2023-04-23T06:31:46.472Z,18.02
2023-04-23T06:34:13.334Z,18.05
2023-04-23T06:36:40.109Z,17.92
2023-04-23T06:39:06.897Z,17.00
2023-04-23T06:41:33.748Z,17.02
2023-04-23T06:44:08.946Z,17.50
2023-04-23T06:46:49.903Z,15.82
2023-04-23T06:49:16.745Z,16.70
2023-04-23T06:51:44.044Z,15.73
2023-04-23T06:54:10.845Z,15.63
2023-04-23T06:56:37.636Z,14.38
2023-04-23T06:59:04.431Z,14.88
2023-04-23T07:01:32.990Z,14.85
2023-04-23T07:03:59.892Z,14.30
2023-04-23T07:06:27.843Z,13.60
2023-04-23T07:08:54.706Z,13.38
2023-04-23T07:11:21.626Z,12.70
2023-04-23T07:13:48.684Z,13.48
2023-04-23T07:16:15.712Z,12.35
2023-04-23T07:18:42.677Z,12.75
2023-04-23T07:21:09.573Z,12.15
2023-04-23T07:23:36.366Z,12.05
2023-04-23T07:26:03.770Z,11.93
2023-04-23T07:28:30.630Z,11.90
2023-04-23T07:30:57.780Z,10.48
2023-04-23T07:33:25.410Z,9.18
2023-04-23T07:35:52.542Z,9.75
2023-04-23T07:38:19.288Z,9.25
2023-04-23T07:40:47.220Z,9.40
2023-04-23T07:43:14.067Z,9.23
2023-04-23T07:45:40.855Z,8.75
2023-04-23T07:48:07.726Z,8.90
2023-04-23T07:50:34.568Z,8.57
2023-04-23T07:53:01.372Z,7.50
2023-04-23T07:55:28.238Z,7.88
2023-04-23T07:57:55.109Z,7.28
2023-04-23T08:00:22.100Z,6.95
2023-04-23T08:02:49.085Z,6.80
2023-04-23T08:05:16.121Z,6.35
2023-04-23T08:07:43.050Z,6.75
2023-04-23T08:10:10.789Z,6.35
2023-04-23T08:12:37.702Z,5.57
2023-04-23T08:15:05.448Z,5.43
2023-04-23T08:17:39.350Z,4.80
2023-04-23T08:20:07.391Z,5.10
2023-04-23T08:22:34.387Z,5.18
2023-04-23T08:25:01.155Z,5.00
2023-04-23T08:27:28.330Z,4.75
2023-04-23T08:29:55.093Z,4.85
2023-04-23T08:32:22.281Z,5.50
2023-04-23T08:34:49.451Z,4.28
2023-04-23T08:37:23.490Z,4.72
2023-04-23T08:39:56.907Z,4.90
2023-04-23T08:42:55.293Z,4.80
2023-04-23T08:45:23.163Z,4.88
2023-04-23T08:47:50.497Z,5.22
2023-04-23T08:50:20.029Z,4.80
2023-04-23T08:52:58.131Z,5.10
2023-04-23T08:55:26.114Z,4.55
2023-04-23T08:57:53.177Z,5.13
2023-04-23T09:00:23.204Z,3.70
2023-04-23T09:02:50.519Z,5.00
2023-04-23T09:05:18.203Z,4.43
2023-04-23T09:07:45.282Z,4.90
2023-04-23T09:10:16.887Z,4.97
2023-04-23T09:12:45.124Z,4.68
2023-04-23T09:15:13.121Z,4.30
2023-04-23T09:17:46.296Z,4.15
2023-04-23T09:20:15.081Z,3.53
2023-04-23T09:22:47.646Z,4.18
2023-04-23T09:25:21.356Z,3.50
2023-04-23T09:27:50.722Z,3.45
2023-04-23T09:30:19.477Z,2.90
2023-04-23T09:32:47.714Z,3.25
2023-04-23T09:35:17.662Z,3.10
2023-04-23T09:37:52.456Z,3.42
2023-04-23T09:40:23.768Z,4.40
2023-04-23T09:42:54.256Z,3.67
2023-04-23T09:45:21.941Z,2.97
2023-04-23T09:47:57.784Z,2.75
2023-04-23T09:50:40.906Z,2.83
2023-04-23T09:53:10.504Z,3.42
2023-04-23T09:55:39.926Z,2.92
2023-04-23T09:58:12.315Z,2.22
2023-04-23T10:00:40.690Z,2.70
2023-04-23T10:03:09.841Z,3.13
2023-04-23T10:08:14.242Z,2.30
2023-04-23T10:10:55.153Z,2.55
2023-04-23T10:13:28.280Z,2.75
2023-04-23T10:15:59.056Z,2.30
2023-04-23T10:18:33.697Z,2.15
2023-04-23T10:21:03.225Z,2.47
2023-04-23T10:23:33.145Z,2.33
2023-04-23T10:26:03.603Z,1.98
2023-04-23T10:28:33.693Z,2.17
2023-04-23T10:31:02.363Z,2.75
2023-04-23T10:33:37.477Z,2.38
2023-04-23T10:36:09.851Z,1.77
2023-04-23T10:38:42.931Z,2.17
2023-04-23T10:41:24.942Z,1.80
2023-04-23T10:43:53.798Z,1.48
2023-04-23T10:46:36.423Z,1.70
2023-04-23T10:49:16.421Z,1.90
2023-04-23T10:54:19.908Z,1.90
2023-04-23T10:56:58.752Z,2.15
2023-04-23T10:59:26.607Z,2.20
2023-04-23T11:01:53.439Z,1.60
2023-04-23T11:04:26.095Z,1.50
2023-04-23T11:07:13.341Z,1.70
2023-04-23T11:09:47.216Z,1.88
2023-04-23T11:12:26.925Z,1.60
2023-04-23T11:14:55.756Z,1.58
2023-04-23T11:17:43.839Z,1.63
2023-04-23T11:20:19.497Z,1.40
2023-04-23T11:22:50.587Z,1.65
2023-04-23T11:25:24.034Z,1.77
2023-04-23T11:27:53.170Z,1.70
2023-04-23T11:30:31.252Z,1.60
2023-04-23T11:33:01.124Z,1.65
2023-04-23T11:35:29.388Z,1.60
2023-04-23T11:37:57.010Z,1.65
2023-04-23T11:40:24.701Z,1.40
2023-04-23T11:42:54.842Z,1.13
2023-04-23T11:45:28.424Z,1.17
2023-04-23T11:48:00.759Z,1.17
2023-04-23T11:50:36.137Z,1.23
2023-04-23T11:53:09.027Z,1.60
2023-04-23T11:55:36.013Z,0.98
2023-04-23T11:58:03.463Z,1.15
2023-04-23T12:00:30.453Z,1.25
2023-04-23T12:03:03.541Z,1.10
2023-04-23T12:05:37.217Z,1.40
2023-04-23T12:08:18.533Z,1.23
2023-04-23T12:11:06.057Z,1.20
2023-04-23T12:13:34.163Z,1.23
2023-04-23T12:16:04.341Z,1.05
2023-04-23T12:18:35.613Z,1.48
2023-04-23T12:21:33.047Z,1.30
2023-04-23T12:24:03.704Z,1.42
2023-04-23T12:26:31.280Z,2.42
2023-04-23T12:29:00.173Z,1.48
2023-04-23T12:31:29.377Z,1.58
2023-04-23T12:34:09.172Z,1.27
2023-04-23T12:36:40.749Z,1.08
2023-04-23T12:39:25.474Z,1.60
2023-04-23T12:42:02.590Z,1.52
2023-04-23T12:44:30.265Z,1.50
2023-04-23T12:47:08.675Z,1.20
2023-04-23T12:49:38.670Z,1.60
2023-04-23T12:52:08.731Z,1.30
2023-04-23T12:54:39.073Z,1.67
2023-04-23T12:57:13.070Z,1.40
2023-04-23T12:59:40.079Z,1.10
2023-04-23T13:02:07.449Z,1.40
2023-04-23T13:04:36.703Z,1.40
2023-04-23T13:07:04.779Z,1.35
2023-04-23T13:09:31.602Z,1.30
2023-04-23T13:11:59.922Z,1.52
2023-04-23T13:14:27.897Z,1.23
2023-04-23T13:16:54.705Z,1.05
2023-04-23T13:19:21.528Z,1.30
2023-04-23T13:21:48.299Z,1.33
2023-04-23T13:24:15.203Z,1.27
2023-04-23T13:26:42.141Z,1.50
2023-04-23T13:29:08.963Z,1.27
2023-04-23T13:31:35.914Z,1.00
2023-04-23T13:34:03.332Z,1.00
2023-04-23T13:36:30.636Z,1.17
2023-04-23T13:38:57.666Z,1.10
2023-04-23T13:41:24.768Z,1.00
2023-04-23T13:43:52.480Z,1.33
2023-04-23T13:46:19.760Z,1.30
2023-04-23T13:48:46.864Z,1.38
2023-04-23T13:51:32.665Z,1.20
2023-04-23T13:54:00.857Z,1.35
2023-04-23T13:56:27.848Z,1.25
2023-04-23T13:59:02.093Z,1.30
2023-04-23T14:01:35.285Z,1.00
2023-04-23T14:04:04.394Z,1.40
2023-04-23T14:06:31.848Z,1.20
2023-04-23T14:08:58.673Z,1.20
2023-04-23T14:11:25.610Z,1.10
2023-04-23T14:13:52.457Z,1.30
2023-04-23T14:16:19.293Z,1.10
2023-04-23T14:18:46.430Z,1.25
2023-04-23T14:21:15.634Z,1.02
2023-04-23T14:23:56.473Z,1.10
2023-04-23T14:29:18.301Z,1.00
2023-04-23T14:31:45.508Z,1.10
2023-04-23T14:34:12.343Z,1.73
2023-04-23T14:36:39.202Z,1.00
2023-04-23T14:39:06.020Z,0.90
2023-04-23T14:41:33.391Z,1.00
2023-04-23T14:44:04.055Z,1.00
2023-04-23T14:46:31.305Z,0.85
2023-04-23T14:48:58.359Z,1.00
2023-04-23T14:51:25.363Z,0.80
2023-04-23T14:53:53.272Z,1.50
2023-04-23T14:56:21.529Z,0.95
2023-04-23T14:58:48.329Z,1.15
2023-04-23T15:01:15.494Z,1.30
2023-04-23T15:03:44.778Z,2.17
2023-04-23T15:06:12.085Z,2.42
2023-04-23T15:08:38.930Z,2.08
2023-04-23T15:11:12.977Z,1.50
2023-04-23T15:14:18.390Z,1.42
2023-04-23T15:16:49.347Z,1.60
2023-04-23T15:19:18.481Z,1.40
2023-04-23T15:21:46.934Z,1.73
2023-04-23T15:24:15.203Z,1.70
2023-04-23T15:26:42.872Z,1.73
2023-04-23T15:29:10.239Z,1.95
2023-04-23T15:31:38.397Z,1.75
2023-04-23T15:34:08.248Z,1.95
2023-04-23T15:36:35.720Z,1.83
2023-04-23T15:39:02.651Z,1.45
2023-04-23T15:41:29.466Z,1.60
2023-04-23T15:43:56.510Z,1.30
2023-04-23T15:46:23.300Z,1.75
2023-04-23T15:48:50.101Z,1.50
2023-04-23T15:51:16.942Z,1.80
2023-04-23T15:53:43.932Z,1.60
2023-04-23T15:56:10.683Z,1.50
2023-04-23T15:58:37.507Z,1.67
2023-04-23T16:01:07.056Z,1.45
2023-04-23T16:03:34.542Z,1.40
2023-04-23T16:06:01.754Z,1.67
2023-04-23T16:08:28.592Z,1.40
2023-04-23T16:10:57.063Z,1.30
2023-04-23T16:13:24.776Z,1.50
2023-04-23T16:15:51.637Z,1.52
2023-04-23T16:18:18.507Z,1.35
2023-04-23T16:20:45.442Z,1.88
2023-04-23T16:23:12.382Z,1.30
2023-04-23T16:25:39.271Z,1.25
2023-04-23T16:28:06.410Z,1.23
2023-04-23T16:30:33.529Z,1.00
2023-04-23T16:33:00.467Z,1.20
2023-04-23T16:35:27.744Z,1.17
2023-04-23T16:37:54.621Z,1.35
2023-04-23T16:40:21.472Z,1.50
2023-04-23T16:42:48.869Z,0.90
2023-04-23T16:45:16.161Z,1.20
2023-04-23T16:47:46.203Z,0.90
2023-04-23T16:50:13.068Z,1.02
2023-04-23T16:52:39.848Z,1.20
2023-04-23T16:55:07.370Z,0.77
2023-04-23T16:57:36.763Z,1.40
2023-04-23T17:00:07.835Z,1.33
2023-04-23T17:02:34.949Z,1.50
2023-04-23T17:05:01.990Z,1.25
2023-04-23T17:07:29.154Z,1.23
2023-04-23T17:09:56.071Z,1.20
2023-04-23T17:12:23.144Z,1.00
2023-04-23T17:14:50.392Z,1.45
2023-04-23T17:17:17.262Z,1.38
2023-04-23T17:19:45.648Z,1.50
2023-04-23T17:22:12.749Z,1.73
2023-04-23T17:24:39.833Z,1.55
2023-04-23T17:27:06.782Z,1.60
2023-04-23T17:29:33.643Z,1.58
2023-04-23T17:32:02.730Z,1.88
2023-04-23T17:34:29.675Z,1.90
2023-04-23T17:36:56.669Z,1.75
2023-04-23T17:39:25.336Z,2.00
2023-04-23T17:41:52.240Z,2.35
2023-04-23T17:44:19.200Z,1.90
2023-04-23T17:46:45.942Z,1.83
2023-04-23T17:49:12.796Z,1.75
2023-04-23T17:51:39.756Z,1.80
2023-04-23T17:54:06.855Z,1.70
2023-04-23T17:56:33.688Z,2.40
2023-04-23T17:59:00.542Z,1.98
2023-04-23T18:01:27.678Z,1.90
2023-04-23T18:03:54.823Z,1.63
2023-04-23T18:06:22.783Z,1.80
2023-04-23T18:08:49.576Z,1.65
2023-04-23T18:11:16.456Z,1.60
2023-04-23T18:13:43.417Z,1.60
2023-04-23T18:16:10.359Z,1.70
2023-04-23T18:18:37.203Z,2.20
2023-04-23T18:21:05.061Z,2.22
2023-04-23T18:23:32.310Z,2.10
2023-04-23T18:26:01.447Z,1.55
2023-04-23T18:28:29.223Z,1.83
2023-04-23T18:31:01.965Z,1.60
2023-04-23T18:33:47.714Z,1.73
2023-04-23T18:36:29.441Z,1.92
2023-04-23T18:38:56.489Z,2.25
2023-04-23T18:41:23.595Z,2.00
2023-04-23T18:43:50.423Z,2.35
2023-04-23T18:46:17.428Z,2.40
2023-04-23T18:48:57.468Z,2.20
2023-04-23T18:51:43.432Z,2.50
2023-04-23T18:54:14.674Z,2.67
2023-04-23T18:56:41.698Z,2.60
2023-04-23T18:59:08.518Z,2.50
2023-04-23T19:01:36.019Z,2.38
2023-04-23T19:04:03.467Z,2.65
2023-04-23T19:06:31.192Z,2.95
2023-04-23T19:08:58.805Z,2.40
2023-04-23T19:11:29.878Z,2.70
2023-04-23T19:13:56.718Z,2.42
2023-04-23T19:16:23.593Z,2.60
2023-04-23T19:18:51.050Z,3.25
2023-04-23T19:21:17.949Z,2.80
2023-04-23T19:23:45.102Z,2.97
2023-04-23T19:26:12.017Z,2.80
2023-04-23T19:28:39.249Z,2.63
2023-04-23T19:31:06.253Z,2.72
2023-04-23T19:33:33.134Z,2.78
2023-04-23T19:35:59.997Z,3.10
2023-04-23T19:38:27.010Z,3.05
2023-04-23T19:40:54.120Z,3.00
2023-04-23T19:43:20.971Z,3.08
2023-04-23T19:45:47.710Z,3.35
2023-04-23T19:48:14.617Z,3.03
2023-04-23T19:50:41.725Z,3.20
2023-04-23T19:53:08.525Z,2.97
2023-04-23T19:55:35.869Z,3.03
2023-04-23T19:58:06.264Z,2.80
2023-04-23T20:00:39.302Z,3.08
2023-04-23T20:03:09.634Z,3.13
2023-04-23T20:05:37.321Z,2.80
2023-04-23T20:08:11.074Z,2.60
2023-04-23T20:10:38.038Z,3.10
2023-04-23T20:13:05.400Z,2.80
2023-04-23T20:15:32.668Z,3.15
2023-04-23T20:18:00.562Z,2.90
2023-04-23T20:20:27.475Z,2.60
2023-04-23T20:22:54.430Z,2.75
2023-04-23T20:25:25.030Z,3.33
2023-04-23T20:27:55.595Z,2.47
2023-04-23T20:30:22.336Z,2.30
2023-04-23T20:32:49.207Z,2.42
2023-04-23T20:35:16.234Z,2.38
2023-04-23T20:37:43.045Z,2.35
2023-04-23T20:40:14.521Z,2.67
2023-04-23T20:42:42.299Z,2.20
2023-04-23T20:45:12.950Z,2.00
2023-04-23T20:47:39.985Z,1.60
2023-04-23T20:50:07.234Z,1.50
2023-04-23T20:52:34.116Z,1.50
2023-04-23T20:55:01.094Z,1.33
2023-04-23T20:57:27.904Z,1.30
2023-04-23T20:59:54.734Z,1.52
2023-04-23T21:02:21.610Z,1.30
2023-04-23T21:04:48.456Z,1.38
2023-04-23T21:07:15.298Z,1.17
2023-04-23T21:09:42.243Z,1.20
2023-04-23T21:12:09.325Z,1.10
2023-04-23T21:14:36.254Z,1.10
2023-04-23T21:17:03.236Z,0.90
2023-04-23T21:19:30.167Z,0.80
2023-04-23T21:21:56.952Z,0.70
2023-04-23T21:24:23.759Z,0.70
2023-04-23T21:26:50.658Z,0.60
2023-04-23T21:29:17.521Z,0.70
2023-04-23T21:31:51.134Z,0.80
2023-04-23T21:34:19.462Z,0.68
2023-04-23T21:36:46.505Z,0.70
2023-04-23T21:39:13.842Z,0.60
2023-04-23T21:41:40.886Z,0.80
2023-04-23T21:44:08.993Z,0.70
2023-04-23T21:46:35.881Z,0.80
2023-04-23T21:49:02.813Z,0.90
2023-04-23T21:51:29.960Z,0.85
2023-04-23T21:53:56.989Z,0.90
2023-04-23T21:56:23.907Z,0.90
2023-04-23T21:58:50.801Z,1.17
2023-04-23T22:01:18.127Z,1.10
2023-04-23T22:03:46.748Z,1.00
2023-04-23T22:06:15.585Z,0.85
2023-04-23T22:08:44.445Z,0.90
2023-04-23T22:11:11.549Z,0.90
2023-04-23T22:13:38.744Z,0.90
2023-04-23T22:16:13.356Z,0.77
2023-04-23T22:18:44.617Z,0.90
2023-04-23T22:21:11.381Z,0.80
2023-04-23T22:23:38.154Z,1.10
2023-04-23T22:26:05.006Z,1.10
2023-04-23T22:28:31.898Z,1.00
2023-04-23T22:30:58.942Z,0.95
2023-04-23T22:33:27.296Z,1.02
2023-04-23T22:35:54.221Z,1.20
2023-04-23T22:38:21.357Z,1.60
2023-04-23T22:40:48.086Z,1.70
2023-04-23T22:43:14.880Z,1.63
2023-04-23T22:45:41.869Z,2.10
2023-04-23T22:48:08.757Z,3.33
2023-04-23T22:50:35.618Z,4.38
2023-04-23T22:53:02.419Z,4.68
2023-04-23T22:55:29.359Z,3.92
2023-04-23T22:57:56.219Z,3.50
2023-04-23T23:00:23.218Z,2.40
2023-04-23T23:02:50.163Z,1.70
2023-04-23T23:05:17.130Z,1.10
2023-04-23T23:07:43.898Z,1.00
2023-04-23T23:10:11.416Z,0.60
2023-04-23T23:12:39.195Z,0.70
2023-04-23T23:15:07.691Z,0.60
2023-04-23T23:17:34.580Z,0.60
2023-04-23T23:20:01.517Z,0.90
2023-04-23T23:22:28.415Z,0.90
2023-04-23T23:24:55.437Z,1.00
2023-04-23T23:27:22.216Z,0.90
2023-04-23T23:29:49.013Z,0.90
2023-04-23T23:32:16.094Z,0.88
2023-04-23T23:34:42.838Z,0.90
2023-04-23T23:37:11.014Z,0.70
2023-04-23T23:39:37.791Z,0.90
2023-04-23T23:42:04.729Z,0.52
2023-04-23T23:44:31.563Z,0.43
2023-04-23T23:46:58.564Z,0.40
2023-04-23T23:49:25.452Z,0.55
2023-04-23T23:51:52.310Z,0.70
2023-04-23T23:54:19.150Z,0.60
2023-04-23T23:56:45.969Z,0.77
2023-04-23T23:59:12.844Z,0.70
